Time;durP1;ratioP1;P1;durP2;ratioP2;P2;SDS_P1;SDS_P2;PMS_P1;PMS_P2;Temp;Humidity;BMP_temperature;BMP_pressure;BME280_temperature;BME280_humidity;BME280_pressure;Samples;Min_cycle;Max_cycle;Signal;HPM_P1;HPM_P2
2023/12/27 00:02:25;;;;;;;8.93;1.23;;;;;;;4.42;100.00;101386.75;4934190;29;20052;-83
2023/12/27 00:04:54;;;;;;;2.58;1.20;;;;;;;4.44;100.00;101391.97;4932933;29;20390;-83
2023/12/27 00:07:21;;;;;;;5.13;1.50;;;;;;;4.41;100.00;101399.69;4923311;29;20066;-83
2023/12/27 00:09:48;;;;;;;9.65;1.40;;;;;;;4.39;100.00;101391.81;4935663;29;20055;-83
2023/12/27 00:12:14;;;;;;;10.10;2.65;;;;;;;4.38;100.00;101389.19;4915865;29;20461;-82
2023/12/27 00:14:43;;;;;;;7.13;1.30;;;;;;;4.36;100.00;101399.53;4927587;29;20476;-83
2023/12/27 00:17:13;;;;;;;11.02;1.30;;;;;;;4.35;100.00;101397.75;4916080;29;20047;-84
2023/12/27 00:19:40;;;;;;;4.05;1.80;;;;;;;4.35;100.00;101392.56;4927507;29;20048;-84
2023/12/27 00:22:06;;;;;;;8.45;1.70;;;;;;;4.37;100.00;101390.03;4927166;29;20039;-84
2023/12/27 00:24:33;;;;;;;5.63;0.95;;;;;;;4.35;100.00;101383.94;4919113;29;20040;-85
2023/12/27 00:27:01;;;;;;;8.50;1.15;;;;;;;4.37;100.00;101390.94;4916572;29;20043;-83
2023/12/27 00:29:28;;;;;;;7.22;0.95;;;;;;;4.38;100.00;101390.09;4914212;29;20048;-83
2023/12/27 00:31:54;;;;;;;5.78;1.02;;;;;;;4.36;100.00;101394.34;4930194;29;20059;-83
2023/12/27 00:34:21;;;;;;;9.88;1.40;;;;;;;4.33;100.00;101395.97;4929147;29;20405;-84
2023/12/27 00:36:47;;;;;;;5.13;1.17;;;;;;;4.33;100.00;101408.91;4929688;29;20392;-84
2023/12/27 00:39:16;;;;;;;13.55;1.73;;;;;;;4.35;100.00;101405.53;4931376;29;20110;-83
2023/12/27 00:41:43;;;;;;;4.15;1.08;;;;;;;4.35;100.00;101408.13;4934210;29;20622;-83
2023/12/27 00:44:10;;;;;;;9.30;2.22;;;;;;;4.33;100.00;101408.91;4916443;29;20059;-82
2023/12/27 00:46:37;;;;;;;5.55;1.33;;;;;;;4.34;100.00;101415.88;4917170;29;20051;-82
2023/12/27 00:49:04;;;;;;;7.60;1.00;;;;;;;4.29;100.00;101413.16;4932384;29;20047;-84
2023/12/27 00:51:31;;;;;;;9.45;2.10;;;;;;;4.29;100.00;101414.03;4931622;29;20050;-84
2023/12/27 00:54:03;;;;;;;11.15;1.88;;;;;;;4.29;100.00;101419.22;4928924;29;20043;-84
2023/12/27 00:56:29;;;;;;;8.48;1.60;;;;;;;4.28;100.00;101425.22;4932100;29;20397;-84
2023/12/27 00:58:57;;;;;;;8.20;1.52;;;;;;;4.28;100.00;101425.22;4933398;29;20055;-83
2023/12/27 01:01:23;;;;;;;5.18;2.38;;;;;;;4.28;100.00;101422.63;4928874;29;20134;-84
2023/12/27 01:03:57;;;;;;;;;;;;;;;4.28;100.00;101434.72;4936501;29;20054;-85
2023/12/27 01:06:24;;;;;;;8.43;2.47;;;;;;;4.27;100.00;101446.78;4911447;29;19947;-85
2023/12/27 01:08:51;;;;;;;5.68;1.80;;;;;;;4.24;100.00;101443.25;4929197;29;20072;-84
2023/12/27 01:11:17;;;;;;;5.30;1.17;;;;;;;4.23;100.00;101446.66;4908426;29;20057;-86
2023/12/27 01:13:45;;;;;;;10.57;2.08;;;;;;;4.22;100.00;101450.94;4909619;29;20046;-84
2023/12/27 01:16:14;;;;;;;3.85;0.80;;;;;;;4.17;100.00;101452.53;4912184;29;20050;-83
2023/12/27 01:18:42;;;;;;;8.45;1.45;;;;;;;4.16;100.00;101460.25;4928388;29;21584;-83
2023/12/27 01:21:09;;;;;;;3.47;1.52;;;;;;;4.16;100.00;101462.84;4917874;29;20102;-84
2023/12/27 01:23:35;;;;;;;10.18;3.00;;;;;;;4.14;100.00;101460.22;4932807;29;20536;-84
2023/12/27 01:26:02;;;;;;;5.35;1.25;;;;;;;4.16;100.00;101466.34;4934682;29;20118;-83
2023/12/27 01:28:28;;;;;;;5.57;1.50;;;;;;;4.09;100.00;101470.47;4911211;29;20109;-83
2023/12/27 01:30:55;;;;;;;9.43;1.38;;;;;;;4.11;100.00;101465.31;4932917;29;20131;-83
2023/12/27 01:33:24;;;;;;;4.70;1.92;;;;;;;4.13;100.00;101467.13;4923905;29;20134;-83
2023/12/27 01:35:50;;;;;;;10.98;1.40;;;;;;;4.15;100.00;101474.94;4920993;29;20099;-84
2023/12/27 01:38:17;;;;;;;6.47;1.55;;;;;;;4.10;100.00;101471.34;4912825;29;20051;-82
2023/12/27 01:40:53;;;;;;;3.42;0.77;;;;;;;4.07;100.00;101474.69;4917063;29;20114;-83
2023/12/27 01:43:22;;;;;;;7.32;1.27;;;;;;;4.05;100.00;101475.50;4917202;29;20063;-85
2023/12/27 01:45:53;;;;;;;6.95;1.10;;;;;;;4.03;100.00;101477.13;4928142;29;20402;-83
2023/12/27 01:48:20;;;;;;;7.20;1.17;;;;;;;4.05;100.00;101486.72;4915664;29;20103;-85
2023/12/27 01:50:50;;;;;;;9.73;1.75;;;;;;;4.00;100.00;101490.00;4933155;29;20055;-84
2023/12/27 01:53:18;;;;;;;7.90;1.38;;;;;;;4.00;100.00;101490.88;4895310;29;20051;-83
2023/12/27 01:55:48;;;;;;;5.50;1.10;;;;;;;4.00;100.00;101490.88;4930177;29;20049;-83
2023/12/27 01:58:16;;;;;;;7.75;1.27;;;;;;;3.97;100.00;101496.84;4914668;29;20058;-83
2023/12/27 02:00:47;;;;;;;6.78;1.48;;;;;;;3.98;100.00;101500.31;4928161;29;20563;-85
2023/12/27 02:03:13;;;;;;;7.78;1.58;;;;;;;3.95;100.00;101498.53;4911367;29;20078;-84
2023/12/27 02:05:42;;;;;;;13.95;1.85;;;;;;;3.93;100.00;101499.31;4917159;29;20102;-84
2023/12/27 02:08:11;;;;;;;5.68;1.60;;;;;;;3.90;100.00;101488.84;4915503;29;20114;-84
2023/12/27 02:10:39;;;;;;;8.05;1.52;;;;;;;3.88;100.00;101481.00;4932124;29;20069;-84
2023/12/27 02:13:09;;;;;;;6.70;1.60;;;;;;;3.90;100.00;101481.09;4912574;29;20086;-85
2023/12/27 02:15:36;;;;;;;2.30;1.23;;;;;;;3.87;100.00;101489.63;4931822;29;20051;-82
2023/12/27 02:18:08;;;;;;;5.00;1.15;;;;;;;3.83;100.00;101479.13;4930999;29;20161;-85
2023/12/27 02:20:35;;;;;;;6.72;1.35;;;;;;;3.78;100.00;101478.94;4933325;29;20082;-83
2023/12/27 02:23:06;;;;;;;4.45;1.10;;;;;;;3.71;100.00;101483.06;4928117;29;20532;-84
2023/12/27 02:25:34;;;;;;;8.88;1.50;;;;;;;3.67;100.00;101468.25;4937814;29;20043;-83
2023/12/27 02:28:00;;;;;;;12.90;1.50;;;;;;;3.63;100.00;101462.09;4928237;29;20057;-83
2023/12/27 02:30:27;;;;;;;7.72;1.17;;;;;;;3.56;100.00;101465.31;4912995;29;20055;-82
2023/12/27 02:32:53;;;;;;;7.80;1.38;;;;;;;3.53;100.00;101465.22;4911638;29;20054;-83
2023/12/27 02:35:20;;;;;;;18.90;2.03;;;;;;;3.53;100.00;101457.44;4946609;29;20118;-83
2023/12/27 02:37:50;;;;;;;5.82;1.60;;;;;;;3.53;100.00;101459.16;4925355;29;20056;-85
2023/12/27 02:40:18;;;;;;;3.92;0.93;;;;;;;3.55;100.00;101457.50;4918352;29;20051;-84
2023/12/27 02:42:46;;;;;;;9.18;1.55;;;;;;;3.51;100.00;101463.41;4911064;29;20134;-84
2023/12/27 02:45:13;;;;;;;7.07;1.30;;;;;;;3.53;100.00;101467.78;4931605;29;20047;-83
2023/12/27 02:47:40;;;;;;;9.60;1.33;;;;;;;3.48;100.00;101465.06;4934425;29;20425;-82
2023/12/27 02:50:07;;;;;;;8.05;1.15;;;;;;;3.46;100.00;101452.91;4934556;29;20051;-84
2023/12/27 02:52:34;;;;;;;12.57;1.45;;;;;;;3.39;100.00;101448.34;4917856;29;20047;-84
2023/12/27 02:55:01;;;;;;;3.45;0.93;;;;;;;3.39;100.00;101458.69;4927496;29;20047;-84
2023/12/27 02:57:27;;;;;;;4.00;1.50;;;;;;;3.41;100.00;101467.41;4933704;29;20571;-82
2023/12/27 02:59:54;;;;;;;7.18;1.50;;;;;;;3.38;100.00;101464.72;4916228;29;20380;-83
2023/12/27 03:02:21;;;;;;;3.92;1.10;;;;;;;3.36;100.00;101469.81;4910639;29;20419;-83
2023/12/27 03:04:47;;;;;;;5.32;1.92;;;;;;;3.36;100.00;101462.06;4919537;29;20142;-85
2023/12/27 03:07:14;;;;;;;7.32;1.50;;;;;;;3.39;100.00;101459.59;4926561;29;20039;-84
2023/12/27 03:09:40;;;;;;;8.07;1.10;;;;;;;3.39;100.00;101462.19;4930716;29;20078;-83
2023/12/27 03:12:12;;;;;;;13.50;1.90;;;;;;;3.34;100.00;101460.25;4909850;29;20050;-84
2023/12/27 03:14:39;;;;;;;4.80;1.88;;;;;;;3.34;100.00;101461.16;4914469;29;20107;-83
2023/12/27 03:17:05;;;;;;;5.72;1.38;;;;;;;3.38;100.00;101454.38;4944957;29;20066;-84
2023/12/27 03:19:38;;;;;;;10.13;2.13;;;;;;;3.36;100.00;101451.69;4924450;29;20091;-86
2023/12/27 03:22:08;;;;;;;6.55;1.95;;;;;;;3.36;100.00;101456.00;4930234;29;20051;-82
2023/12/27 03:24:34;;;;;;;12.57;1.50;;;;;;;3.39;100.00;101453.50;4931738;29;20063;-85
2023/12/27 03:27:03;;;;;;;5.47;1.23;;;;;;;3.42;100.00;101451.91;4930232;29;20047;-83
2023/12/27 03:29:30;;;;;;;11.40;1.23;;;;;;;3.38;100.00;101444.03;4947851;29;20043;-83
2023/12/27 03:31:56;;;;;;;13.05;1.88;;;;;;;3.31;100.00;101443.81;4913819;29;20070;-83
2023/12/27 03:34:25;;;;;;;5.55;1.20;;;;;;;3.29;100.00;101447.16;4932121;29;20055;-84
2023/12/27 03:36:52;;;;;;;6.43;1.25;;;;;;;3.28;100.00;101445.41;4914060;29;20070;-85
2023/12/27 03:39:18;;;;;;;5.22;1.17;;;;;;;3.25;100.00;101447.91;4934119;29;20065;-85
2023/12/27 03:41:45;;;;;;;5.25;1.30;;;;;;;3.19;100.00;101453.72;4934762;28;20092;-85
2023/12/27 03:44:13;;;;;;;5.07;1.05;;;;;;;3.13;100.00;101445.78;4934433;29;20418;-85
2023/12/27 03:46:40;;;;;;;5.63;1.27;;;;;;;3.09;100.00;101439.59;4911814;29;20134;-85
2023/12/27 03:49:11;;;;;;;6.68;1.38;;;;;;;3.08;100.00;101437.84;4916251;29;20047;-84
2023/12/27 03:51:38;;;;;;;7.35;1.63;;;;;;;3.06;100.00;101439.47;4927774;28;20055;-84
2023/12/27 03:54:04;;;;;;;6.53;1.88;;;;;;;3.02;100.00;101441.94;4935369;29;20088;-82
2023/12/27 03:56:31;;;;;;;9.30;3.42;;;;;;;3.00;100.00;101452.22;4930386;29;20508;-82
2023/12/27 03:58:57;;;;;;;3.42;1.35;;;;;;;2.97;100.00;101454.69;4948134;29;20047;-82
2023/12/27 04:01:24;;;;;;;20.55;2.60;;;;;;;2.96;100.00;101451.25;4926334;29;20255;-84
2023/12/27 04:03:51;;;;;;;4.30;1.58;;;;;;;2.97;100.00;101444.34;4929262;29;20057;-83
2023/12/27 04:06:19;;;;;;;8.32;3.08;;;;;;;2.95;100.00;101452.06;4926524;29;20043;-84
2023/12/27 04:08:47;;;;;;;6.63;1.48;;;;;;;2.96;100.00;101446.06;4932242;29;20421;-83
2023/12/27 04:11:18;;;;;;;3.70;1.67;;;;;;;2.95;100.00;101441.72;4913096;29;20567;-85
2023/12/27 04:13:44;;;;;;;11.48;1.63;;;;;;;2.95;100.00;101440.84;4916755;29;20055;-82
2023/12/27 04:16:18;;;;;;;11.93;1.75;;;;;;;2.95;100.00;101448.59;4918439;29;20040;-84
2023/12/27 04:18:45;;;;;;;2.80;1.13;;;;;;;2.96;100.00;101445.19;4913924;29;20107;-82
2023/12/27 04:21:17;;;;;;;8.77;2.03;;;;;;;2.92;100.00;101444.19;4920382;29;20054;-81
2023/12/27 04:23:44;;;;;;;9.55;2.13;;;;;;;2.91;100.00;101442.44;4913668;29;20126;-82
2023/12/27 04:26:11;;;;;;;7.60;1.80;;;;;;;2.96;100.00;101435.72;4916541;29;20067;-82
2023/12/27 04:28:37;;;;;;;9.43;1.85;;;;;;;2.95;100.00;101433.09;4927807;29;20054;-82
2023/12/27 04:31:04;;;;;;;5.25;0.93;;;;;;;2.95;100.00;101435.66;4920447;29;20047;-82
2023/12/27 04:33:29;;;;;;;2.90;0.93;;;;;;;2.93;100.00;101440.78;4934177;29;20524;-82
2023/12/27 04:35:56;;;;;;;9.00;2.92;;;;;;;2.90;100.00;101439.81;4936193;29;20094;-83
2023/12/27 04:38:26;;;;;;;8.73;1.75;;;;;;;2.90;100.00;101453.59;4917702;29;20079;-84
2023/12/27 04:40:56;;;;;;;5.07;1.02;;;;;;;2.88;100.00;101457.84;4935482;29;20079;-82
2023/12/27 04:43:22;;;;;;;6.25;1.13;;;;;;;2.91;100.00;101451.91;4929325;29;20127;-84
2023/12/27 04:45:49;;;;;;;7.45;1.27;;;;;;;2.93;100.00;101464.06;4930332;29;20414;-84
2023/12/27 04:48:19;;;;;;;7.10;2.05;;;;;;;2.94;100.00;101463.22;4915886;29;20050;-82
2023/12/27 04:50:48;;;;;;;6.30;2.03;;;;;;;2.97;100.00;101460.75;4934510;29;20047;-83
2023/12/27 04:53:17;;;;;;;7.57;1.60;;;;;;;3.01;100.00;101460.84;4925742;28;20110;-83
2023/12/27 04:55:46;;;;;;;3.05;1.40;;;;;;;3.00;100.00;101465.16;4933279;29;20047;-83
2023/12/27 04:58:13;;;;;;;8.05;2.13;;;;;;;3.05;100.00;101465.31;4951906;29;20050;-84
2023/12/27 05:00:39;;;;;;;8.75;3.05;;;;;;;3.10;100.00;101472.41;4923619;29;20066;-83
2023/12/27 05:03:06;;;;;;;6.35;1.73;;;;;;;3.12;100.00;101470.75;4922912;29;20052;-83
2023/12/27 05:05:33;;;;;;;7.15;1.75;;;;;;;3.17;100.00;101472.59;4915899;29;20055;-83
2023/12/27 05:08:00;;;;;;;4.97;1.65;;;;;;;3.18;100.00;101474.38;4929790;29;20126;-84
2023/12/27 05:10:30;;;;;;;3.20;1.50;;;;;;;3.22;100.00;101477.13;4919950;29;20044;-83
2023/12/27 05:12:56;;;;;;;1.80;1.00;;;;;;;3.25;100.00;101481.53;4923726;29;20048;-83
2023/12/27 05:15:23;;;;;;;6.38;1.58;;;;;;;3.25;100.00;101485.00;4920562;29;20058;-83
2023/12/27 05:17:49;;;;;;;6.18;1.38;;;;;;;3.16;100.00;101489.84;4926012;29;20051;-83
2023/12/27 05:20:18;;;;;;;10.77;3.33;;;;;;;3.22;100.00;101484.91;4935203;29;20051;-86
2023/12/27 05:22:45;;;;;;;4.55;1.23;;;;;;;3.24;100.00;101492.72;4939469;29;20062;-83
2023/12/27 05:25:12;;;;;;;10.63;1.98;;;;;;;3.22;100.00;101484.00;4927517;29;20387;-84
2023/12/27 05:27:39;;;;;;;5.15;1.88;;;;;;;3.20;100.00;101490.84;4932797;29;20508;-83
2023/12/27 05:30:10;;;;;;;6.10;1.95;;;;;;;3.12;100.00;101485.41;4922699;29;20051;-82
2023/12/27 05:32:39;;;;;;;5.35;1.30;;;;;;;3.09;100.00;101491.34;4913881;29;20075;-82
2023/12/27 05:35:11;;;;;;;10.90;1.88;;;;;;;3.11;100.00;101494.00;4937787;29;20070;-83
2023/12/27 05:37:38;;;;;;;3.53;1.10;;;;;;;3.08;100.00;101487.00;4923934;29;21127;-83
2023/12/27 05:40:09;;;;;;;8.98;1.33;;;;;;;3.07;100.00;101486.94;4919933;29;20497;-83
2023/12/27 05:42:37;;;;;;;12.93;2.45;;;;;;;3.01;100.00;101485.00;4942354;29;20054;-82
2023/12/27 05:45:04;;;;;;;8.52;1.65;;;;;;;3.03;100.00;101485.09;4940681;29;20516;-81
2023/12/27 05:47:31;;;;;;;4.40;1.42;;;;;;;3.01;100.00;101485.00;4921523;29;20133;-83
2023/12/27 05:49:57;;;;;;;4.57;1.70;;;;;;;3.02;100.00;101484.19;4923885;29;20141;-83
2023/12/27 05:52:24;;;;;;;7.82;1.67;;;;;;;2.98;100.00;101480.59;4919242;29;20047;-82
2023/12/27 05:54:51;;;;;;;6.65;1.70;;;;;;;3.04;100.00;101479.97;4923698;29;20051;-82
2023/12/27 05:57:22;;;;;;;8.77;1.40;;;;;;;3.00;100.00;101467.75;4921300;29;20043;-83
2023/12/27 05:59:48;;;;;;;2.88;1.35;;;;;;;3.01;100.00;101471.22;4922156;29;20089;-84
2023/12/27 06:02:16;;;;;;;13.00;2.03;;;;;;;3.06;100.00;101467.06;4929764;29;20071;-84
2023/12/27 06:04:48;;;;;;;6.80;1.27;;;;;;;3.06;100.00;101467.94;4937510;28;20614;-81
2023/12/27 06:07:15;;;;;;;10.00;1.65;;;;;;;3.01;100.00;101468.63;4936552;29;20873;-81
2023/12/27 06:09:42;;;;;;;11.10;2.40;;;;;;;3.01;100.00;101464.31;4941408;29;20043;-82
2023/12/27 06:12:09;;;;;;;9.05;1.88;;;;;;;2.99;100.00;101465.97;4939754;29;20055;-82
2023/12/27 06:14:38;;;;;;;7.75;1.10;;;;;;;2.96;100.00;101461.59;4929471;29;20106;-85
2023/12/27 06:17:05;;;;;;;11.60;1.88;;;;;;;2.96;100.00;101466.75;4917332;29;20386;-85
2023/12/27 06:19:32;;;;;;;10.77;1.70;;;;;;;2.96;100.00;101465.88;4933012;29;20058;-82
2023/12/27 06:21:59;;;;;;;6.05;1.65;;;;;;;2.94;100.00;101465.81;4942942;29;20050;-82
2023/12/27 06:24:30;;;;;;;6.15;1.88;;;;;;;2.93;100.00;101461.47;4932698;29;20509;-84
2023/12/27 06:26:57;;;;;;;5.85;1.08;;;;;;;2.88;100.00;101460.44;4922348;29;20055;-83
2023/12/27 06:29:24;;;;;;;6.03;2.45;;;;;;;2.85;100.00;101465.47;4917541;29;20046;-83
2023/12/27 06:31:51;;;;;;;14.05;2.85;;;;;;;2.82;100.00;101467.97;4921351;29;20496;-83
2023/12/27 06:34:18;;;;;;;9.95;2.03;;;;;;;2.74;100.00;101464.25;4916567;29;20050;-84
2023/12/27 06:36:47;;;;;;;3.88;1.33;;;;;;;2.76;100.00;101460.84;4933069;29;20074;-81
2023/12/27 06:39:14;;;;;;;6.97;1.38;;;;;;;2.72;100.00;101466.75;4929452;29;20047;-82
2023/12/27 06:41:41;;;;;;;4.75;1.60;;;;;;;2.69;100.00;101468.38;4912865;29;20154;-85
2023/12/27 06:44:08;;;;;;;10.02;1.70;;;;;;;2.65;100.00;101465.66;4932179;29;20052;-83
2023/12/27 06:46:41;;;;;;;3.80;1.17;;;;;;;2.66;100.00;101469.13;4933299;29;20050;-84
2023/12/27 06:49:08;;;;;;;4.28;1.85;;;;;;;2.65;100.00;101459.59;4914507;29;20467;-82
2023/12/27 06:51:40;;;;;;;11.60;2.53;;;;;;;2.57;100.00;101455.84;4927525;29;20120;-82
2023/12/27 06:54:07;;;;;;;13.70;3.13;;;;;;;2.62;100.00;101465.53;4937537;29;20054;-82
2023/12/27 06:56:34;;;;;;;5.03;1.65;;;;;;;2.63;100.00;101463.81;4937171;29;20040;-84
2023/12/27 06:59:01;;;;;;;7.22;2.10;;;;;;;2.65;100.00;101465.66;4924427;29;20074;-84
2023/12/27 07:01:35;;;;;;;3.55;2.47;;;;;;;2.68;100.00;101470.03;4933071;29;20044;-83
2023/12/27 07:04:05;;;;;;;3.70;1.25;;;;;;;2.75;100.00;101466.88;4936804;29;20047;-82
2023/12/27 07:06:32;;;;;;;9.52;1.70;;;;;;;2.76;100.00;101468.59;4922652;29;20480;-83
2023/12/27 07:08:59;;;;;;;11.07;1.75;;;;;;;2.80;100.00;101473.09;4935329;29;20147;-83
2023/12/27 07:11:28;;;;;;;3.42;1.48;;;;;;;2.80;100.00;101474.78;4936032;29;20079;-83
2023/12/27 07:13:55;;;;;;;18.17;2.83;;;;;;;2.81;100.00;101471.38;4942940;29;20074;-82
2023/12/27 07:16:25;;;;;;;8.65;1.20;;;;;;;2.78;100.00;101482.50;4941388;28;20051;-82
2023/12/27 07:18:54;;;;;;;2.90;1.33;;;;;;;2.77;100.00;101478.13;4938505;29;20055;-81
2023/12/27 07:21:23;;;;;;;15.02;1.98;;;;;;;2.80;100.00;101482.53;4929755;29;20563;-83
2023/12/27 07:23:50;;;;;;;4.93;1.45;;;;;;;2.76;100.00;101475.50;4943487;29;21173;-84
2023/12/27 07:26:17;;;;;;;20.10;3.10;;;;;;;2.77;100.00;101472.09;4938055;29;20103;-82
2023/12/27 07:28:43;;;;;;;8.93;1.85;;;;;;;2.78;100.00;101471.28;4923102;29;20553;-81
2023/12/27 07:31:12;;;;;;;4.30;2.03;;;;;;;2.81;100.00;101473.97;4922919;29;20063;-85
2023/12/27 07:33:41;;;;;;;5.07;1.80;;;;;;;2.88;100.00;101475.06;4930168;29;20082;-83
2023/12/27 07:36:12;;;;;;;8.05;2.38;;;;;;;2.87;100.00;101466.44;4937381;29;20043;-84
2023/12/27 07:38:39;;;;;;;3.55;2.85;;;;;;;2.91;100.00;101470.00;4946761;28;20062;-82
2023/12/27 07:41:07;;;;;;;6.07;2.38;;;;;;;2.89;100.00;101458.72;4920112;29;20063;-83
2023/12/27 07:43:35;;;;;;;7.57;1.67;;;;;;;2.90;100.00;101463.94;4931356;29;20816;-82
2023/12/27 07:46:06;;;;;;;7.95;1.33;;;;;;;2.92;100.00;101462.31;4922171;29;20055;-82
2023/12/27 07:48:34;;;;;;;4.60;3.05;;;;;;;2.94;100.00;101470.97;4929174;29;20053;-82
2023/12/27 07:51:01;;;;;;;5.78;1.83;;;;;;;2.99;100.00;101468.56;4931779;29;20054;-82
2023/12/27 07:53:28;;;;;;;4.47;1.58;;;;;;;2.99;100.00;101471.16;4928399;29;20046;-81
2023/12/27 07:55:55;;;;;;;3.53;2.65;;;;;;;2.94;100.00;101470.97;4934644;29;20051;-85
2023/12/27 07:58:22;;;;;;;10.25;3.00;;;;;;;2.98;100.00;101472.84;4936172;29;20142;-82
2023/12/27 08:00:53;;;;;;;3.70;1.50;;;;;;;3.02;100.00;101473.84;4931970;29;20051;-85
2023/12/27 08:03:25;;;;;;;9.02;2.72;;;;;;;3.02;100.00;101465.22;4947310;29;20051;-83
2023/12/27 08:05:52;;;;;;;6.38;2.30;;;;;;;3.06;100.00;101469.66;4921589;29;20070;-84
2023/12/27 08:08:18;;;;;;;12.63;4.88;;;;;;;3.08;100.00;101466.31;4920655;29;20098;-83
2023/12/27 08:10:48;;;;;;;8.52;1.83;;;;;;;3.09;100.00;101460.31;4955169;29;20084;-82
2023/12/27 08:13:16;;;;;;;12.05;2.45;;;;;;;3.11;100.00;101450.88;4925004;29;20043;-82
2023/12/27 08:15:43;;;;;;;7.78;2.42;;;;;;;3.16;100.00;101463.97;4920033;29;20535;-83
2023/12/27 08:18:10;;;;;;;10.32;2.20;;;;;;;3.17;100.00;101460.56;4934376;29;20548;-82
2023/12/27 08:20:37;;;;;;;4.35;2.38;;;;;;;3.19;100.00;101451.13;4940412;29;20054;-82
2023/12/27 08:23:03;;;;;;;5.50;1.55;;;;;;;3.28;100.00;101451.44;4917078;29;20150;-83
2023/12/27 08:25:33;;;;;;;7.82;1.98;;;;;;;3.30;100.00;101449.81;4930469;29;20039;-82
2023/12/27 08:28:04;;;;;;;4.00;2.00;;;;;;;3.38;100.00;101450.06;4927025;29;20059;-83
2023/12/27 08:30:33;;;;;;;9.02;1.95;;;;;;;3.47;100.00;101444.31;4937095;29;20050;-83
2023/12/27 08:33:03;;;;;;;12.85;3.38;;;;;;;3.53;100.00;101436.72;4925674;29;20139;-83
2023/12/27 08:35:32;;;;;;;6.93;1.48;;;;;;;3.59;100.00;101429.16;4946556;29;20081;-82
2023/12/27 08:37:59;;;;;;;7.22;2.03;;;;;;;3.63;100.00;101424.97;4942951;29;20044;-82
2023/12/27 08:40:29;;;;;;;4.63;1.98;;;;;;;3.74;100.00;101426.22;4938430;29;20040;-84
2023/12/27 08:42:58;;;;;;;3.22;1.40;;;;;;;3.85;100.00;101420.47;4939947;29;20049;-82
2023/12/27 08:45:37;;;;;;;;;;;;;;;;;;;;;
2023/12/27 08:48:06;;;;;;;5.85;1.80;;;;;;;3.90;100.00;101414.59;4939906;29;20070;-82
2023/12/27 08:50:36;;;;;;;7.53;1.73;;;;;;;3.96;100.00;101413.91;4927157;29;20044;-83
2023/12/27 08:53:03;;;;;;;2.08;1.33;;;;;;;4.02;100.00;101421.88;4941830;29;20039;-83
2023/12/27 08:55:33;;;;;;;4.22;1.20;;;;;;;4.02;100.00;101415.81;4941094;29;20048;-84
2023/12/27 08:58:09;;;;;;;9.65;2.13;;;;;;;4.10;100.00;101419.50;4945107;29;20051;-83
2023/12/27 09:00:41;;;;;;;4.97;1.60;;;;;;;4.17;100.00;101416.25;4940225;29;20047;-84
2023/12/27 09:03:08;;;;;;;4.57;1.15;;;;;;;4.24;100.00;101406.97;4947865;29;20051;-82
2023/12/27 09:05:38;;;;;;;7.53;2.20;;;;;;;4.27;100.00;101405.31;4945640;29;20048;-84
2023/12/27 09:08:08;;;;;;;6.65;1.50;;;;;;;4.37;100.00;101395.22;4927857;29;20047;-84
2023/12/27 09:10:37;;;;;;;7.15;1.23;;;;;;;4.37;100.00;101390.94;4936320;29;20047;-84
2023/12/27 09:13:06;;;;;;;6.45;1.60;;;;;;;4.43;100.00;101385.91;4936774;29;20067;-83
2023/12/27 09:15:36;;;;;;;6.60;1.90;;;;;;;4.46;100.00;101370.44;4945959;29;20230;-83
2023/12/27 09:18:08;;;;;;;7.47;1.85;;;;;;;4.43;100.00;101374.66;4925355;29;20055;-86
2023/12/27 09:20:35;;;;;;;10.55;2.17;;;;;;;4.42;100.00;101371.19;4942431;29;20999;-81
2023/12/27 09:23:11;;;;;;;5.43;1.80;;;;;;;4.47;100.00;101358.34;4931013;29;20114;-84
2023/12/27 09:25:37;;;;;;;13.82;2.10;;;;;;;4.54;100.00;101372.38;4927062;29;20087;-83
2023/12/27 09:28:04;;;;;;;9.05;2.20;;;;;;;4.58;100.00;101363.84;4940139;29;20130;-83
2023/12/27 09:30:33;;;;;;;4.82;1.40;;;;;;;4.56;100.00;101368.09;4926649;29;20059;-84
2023/12/27 09:33:01;;;;;;;4.95;2.13;;;;;;;4.62;100.00;101369.13;4931566;29;20106;-85
2023/12/27 09:35:28;;;;;;;11.88;2.60;;;;;;;4.66;100.00;101364.06;4931258;29;20047;-84
2023/12/27 09:37:55;;;;;;;9.48;2.15;;;;;;;4.75;100.00;101365.16;4941640;29;20063;-81
2023/12/27 09:40:24;;;;;;;5.05;2.45;;;;;;;4.86;100.00;101362.84;4924707;29;20063;-83
2023/12/27 09:42:51;;;;;;;7.85;2.90;;;;;;;4.87;100.00;101362.00;4937930;29;20471;-83
2023/12/27 09:45:23;;;;;;;12.10;1.65;;;;;;;4.81;100.00;101351.50;4926534;29;20048;-83
2023/12/27 09:47:55;;;;;;;11.77;2.88;;;;;;;4.86;100.00;101352.44;4940761;29;20047;-83
2023/12/27 09:50:22;;;;;;;8.75;1.98;;;;;;;4.90;100.00;101349.13;4941277;29;20176;-84
2023/12/27 09:52:49;;;;;;;4.10;1.55;;;;;;;4.96;100.00;101351.00;4927128;29;20062;-82
2023/12/27 09:55:18;;;;;;;5.82;1.35;;;;;;;5.02;100.00;101343.38;4945272;29;20039;-83
2023/12/27 09:57:51;;;;;;;4.18;1.00;;;;;;;5.13;100.00;101344.50;4936367;29;20074;-84
2023/12/27 10:00:21;;;;;;;8.65;1.73;;;;;;;5.24;100.00;101334.38;4941237;29;20472;-84
2023/12/27 10:02:58;;;;;;;5.93;1.42;;;;;;;5.25;100.00;101330.06;4942015;28;20061;-82
2023/12/27 10:05:37;;;;;;;9.90;2.65;;;;;;;5.30;100.00;101325.84;4933090;29;20040;-83
2023/12/27 10:08:05;;;;;;;3.95;1.25;;;;;;;5.22;100.00;101322.22;4935674;29;20039;-84
2023/12/27 10:10:33;;;;;;;4.93;1.15;;;;;;;5.28;100.00;101312.84;4940523;29;20794;-82
2023/12/27 10:13:04;;;;;;;4.53;1.10;;;;;;;5.34;100.00;101321.63;4930918;29;20095;-82
2023/12/27 10:15:38;;;;;;;5.55;1.80;;;;;;;5.34;100.00;101317.28;4950012;29;20051;-86
2023/12/27 10:18:07;;;;;;;;;;;;;;;5.33;100.00;101314.66;4929925;29;20031;-85
2023/12/27 10:20:38;;;;;;;8.13;1.38;;;;;;;5.37;100.00;101309.59;4928224;29;19913;-85
2023/12/27 10:23:09;;;;;;;3.65;1.10;;;;;;;5.43;100.00;101303.66;4950167;29;20107;-83
2023/12/27 10:25:36;;;;;;;1.88;1.30;;;;;;;5.50;100.00;101300.38;4938603;29;20054;-83
2023/12/27 10:28:06;;;;;;;2.10;1.00;;;;;;;5.53;100.00;101297.81;4931354;29;20055;-82
2023/12/27 10:30:33;;;;;;;2.08;0.98;;;;;;;5.58;100.00;101285.81;4945141;29;20051;-84
2023/12/27 10:33:03;;;;;;;7.50;1.60;;;;;;;5.59;100.00;101284.97;4928320;29;20047;-83
2023/12/27 10:35:38;;;;;;;6.28;1.33;;;;;;;5.69;100.00;101285.19;4937128;29;20100;-82
2023/12/27 10:38:06;;;;;;;2.45;1.15;;;;;;;5.71;100.00;101288.66;4963864;28;20032;-81
2023/12/27 10:40:39;;;;;;;4.05;1.15;;;;;;;5.76;100.00;101284.44;4963273;29;20065;-84
2023/12/27 10:43:12;;;;;;;2.75;1.20;;;;;;;5.78;100.00;101287.97;4931918;29;20086;-84
2023/12/27 10:45:38;;;;;;;6.45;1.30;;;;;;;5.76;100.00;101285.34;4912968;29;20070;-85
2023/12/27 10:48:08;;;;;;;6.35;1.05;;;;;;;5.81;100.00;101275.03;4924517;29;20046;-85
2023/12/27 10:50:37;;;;;;;2.95;1.17;;;;;;;5.90;100.00;101272.59;4929163;29;20046;-84
2023/12/27 10:53:12;;;;;;;6.00;1.45;;;;;;;5.90;100.00;101267.41;4942248;29;20039;-84
2023/12/27 10:55:42;;;;;;;5.90;1.25;;;;;;;5.89;100.00;101257.88;4934252;29;20047;-84
2023/12/27 10:58:24;;;;;;;8.95;1.75;;;;;;;5.90;100.00;101251.81;4928759;29;20406;-84
2023/12/27 11:01:00;;;;;;;1.75;1.30;;;;;;;5.93;100.00;101251.91;4927776;29;20051;-83
2023/12/27 11:03:33;;;;;;;3.83;1.27;;;;;;;5.84;100.00;101240.44;4941237;29;20055;-84
2023/12/27 11:06:01;;;;;;;2.25;1.00;;;;;;;5.81;100.00;101246.44;4928278;29;20051;-83
2023/12/27 11:08:29;;;;;;;2.17;2.03;;;;;;;5.82;100.00;101242.16;4949189;29;20047;-84
2023/12/27 11:11:01;;;;;;;6.65;1.95;;;;;;;5.80;100.00;101232.59;4929791;29;20527;-84
2023/12/27 11:13:36;;;;;;;5.75;2.05;;;;;;;5.82;100.00;101234.34;4929358;29;20051;-82
2023/12/27 11:16:07;;;;;;;3.30;1.52;;;;;;;5.72;100.00;101223.78;4948283;29;20043;-83
2023/12/27 11:18:40;;;;;;;6.53;1.33;;;;;;;5.82;100.00;101224.81;4945407;29;20510;-84
2023/12/27 11:21:07;;;;;;;5.30;1.20;;;;;;;5.80;100.00;101218.69;4944854;29;20044;-83
2023/12/27 11:23:33;;;;;;;5.35;1.40;;;;;;;5.69;100.00;101209.84;4962419;29;20043;-84
2023/12/27 11:26:02;;;;;;;3.85;1.75;;;;;;;5.83;100.00;101204.91;4945021;29;20051;-85
2023/12/27 11:28:38;;;;;;;6.55;1.67;;;;;;;5.89;100.00;101192.03;4946302;29;20031;-83
2023/12/27 11:31:11;;;;;;;10.07;1.60;;;;;;;5.87;100.00;101191.16;4929386;29;20055;-84
2023/12/27 11:33:38;;;;;;;7.03;1.73;;;;;;;5.84;100.00;101186.75;4924529;29;20075;-84